sensor_id;sensor_type;location;lat;lon;timestamp;pressure;altitude;pressure_sealevel;temperature;humidity
75192;BME280;63771;52.580;9.734;2023-12-20T00:01:19;100762.91;;;6.30;100.00
75192;BME280;63771;52.580;9.734;2023-12-20T00:03:44;100762.75;;;6.20;100.00
75192;BME280;63771;52.580;9.734;2023-12-20T00:06:10;100769.88;;;6.15;100.00
75192;BME280;63771;52.580;9.734;2023-12-20T00:08:35;100773.16;;;6.14;100.00
75192;BME280;63771;52.580;9.734;2023-12-20T00:11:01;100777.34;;;6.14;100.00
75192;BME280;63771;52.580;9.734;2023-12-20T00:13:26;100769.59;;;6.12;100.00
75192;BME280;63771;52.580;9.734;2023-12-20T00:15:51;100766.31;;;6.13;100.00
75192;BME280;63771;52.580;9.734;2023-12-20T00:18:17;100760.94;;;6.10;100.00
75192;BME280;63771;52.580;9.734;2023-12-20T00:20:42;100769.00;;;6.06;100.00
75192;BME280;63771;52.580;9.734;2023-12-20T00:23:07;100776.13;;;6.01;100.00
75192;BME280;63771;52.580;9.734;2023-12-20T00:25:33;100771.22;;;6.03;100.00
75192;BME280;63771;52.580;9.734;2023-12-20T00:27:59;100768.66;;;6.03;100.00
75192;BME280;63771;52.580;9.734;2023-12-20T00:30:25;100765.09;;;6.01;100.00
75192;BME280;63771;52.580;9.734;2023-12-20T00:32:50;100766.88;;;6.02;100.00
75192;BME280;63771;52.580;9.734;2023-12-20T00:35:16;100772.09;;;6.04;100.00
75192;BME280;63771;52.580;9.734;2023-12-20T00:37:42;100761.06;;;6.03;100.00
75192;BME280;63771;52.580;9.734;2023-12-20T00:40:08;100762.25;;;5.98;100.00
75192;BME280;63771;52.580;9.734;2023-12-20T00:42:34;100756.16;;;5.96;100.00
75192;BME280;63771;52.580;9.734;2023-12-20T00:44:59;100749.28;;;5.95;100.00
75192;BME280;63771;52.580;9.734;2023-12-20T00:47:25;100759.41;;;5.95;100.00
75192;BME280;63771;52.580;9.734;2023-12-20T00:49:50;100760.00;;;5.92;100.00
75192;BME280;63771;52.580;9.734;2023-12-20T00:52:15;100768.63;;;5.94;100.00
75192;BME280;63771;52.580;9.734;2023-12-20T00:54:42;100766.53;;;5.90;100.00
75192;BME280;63771;52.580;9.734;2023-12-20T00:57:08;100767.59;;;5.92;100.00
75192;BME280;63771;52.580;9.734;2023-12-20T00:59:33;100773.94;;;5.89;100.00
75192;BME280;63771;52.580;9.734;2023-12-20T01:01:58;100779.91;;;5.89;100.00
75192;BME280;63771;52.580;9.734;2023-12-20T01:04:24;100771.69;;;5.83;100.00
75192;BME280;63771;52.580;9.734;2023-12-20T01:06:49;100770.38;;;5.87;100.00
75192;BME280;63771;52.580;9.734;2023-12-20T01:09:14;100767.97;;;5.80;100.00
75192;BME280;63771;52.580;9.734;2023-12-20T01:11:39;100766.16;;;5.79;100.00
75192;BME280;63771;52.580;9.734;2023-12-20T01:14:05;100765.59;;;5.81;100.00
75192;BME280;63771;52.580;9.734;2023-12-20T01:16:30;100764.69;;;5.81;100.00
75192;BME280;63771;52.580;9.734;2023-12-20T01:18:55;100772.72;;;5.76;100.00
75192;BME280;63771;52.580;9.734;2023-12-20T01:21:21;100772.72;;;5.76;100.00
75192;BME280;63771;52.580;9.734;2023-12-20T01:23:46;100781.06;;;5.75;100.00
75192;BME280;63771;52.580;9.734;2023-12-20T01:26:11;100779.72;;;5.79;100.00
75192;BME280;63771;52.580;9.734;2023-12-20T01:28:37;100784.47;;;5.76;100.00
75192;BME280;63771;52.580;9.734;2023-12-20T01:31:03;100787.00;;;5.76;100.00
75192;BME280;63771;52.580;9.734;2023-12-20T01:33:29;100777.31;;;5.72;100.00
75192;BME280;63771;52.580;9.734;2023-12-20T01:35:54;100766.28;;;5.71;100.00
75192;BME280;63771;52.580;9.734;2023-12-20T01:38:19;100764.19;;;5.67;100.00
75192;BME280;63771;52.580;9.734;2023-12-20T01:40:45;100770.63;;;5.72;100.00
75192;BME280;63771;52.580;9.734;2023-12-20T01:43:10;100764.34;;;5.69;100.00
75192;BME280;63771;52.580;9.734;2023-12-20T01:45:37;100767.59;;;5.68;100.00
75192;BME280;63771;52.580;9.734;2023-12-20T01:48:04;100776.38;;;5.63;100.00
75192;BME280;63771;52.580;9.734;2023-12-20T01:50:31;100779.19;;;5.57;100.00
75192;BME280;63771;52.580;9.734;2023-12-20T01:52:59;100781.22;;;5.53;100.00
75192;BME280;63771;52.580;9.734;2023-12-20T01:55:27;100781.97;;;5.52;100.00
75192;BME280;63771;52.580;9.734;2023-12-20T01:57:53;100782.72;;;5.50;100.00
75192;BME280;63771;52.580;9.734;2023-12-20T02:00:19;100785.09;;;5.49;100.00
75192;BME280;63771;52.580;9.734;2023-12-20T02:02:48;100779.97;;;5.40;100.00
75192;BME280;63771;52.580;9.734;2023-12-20T02:05:16;100778.19;;;5.39;100.00
75192;BME280;63771;52.580;9.734;2023-12-20T02:07:42;100770.47;;;5.38;100.00
75192;BME280;63771;52.580;9.734;2023-12-20T02:10:08;100772.25;;;5.39;100.00
75192;BME280;63771;52.580;9.734;2023-12-20T02:12:33;100770.47;;;5.38;100.00
75192;BME280;63771;52.580;9.734;2023-12-20T02:14:58;100764.81;;;5.40;100.00
75192;BME280;63771;52.580;9.734;2023-12-20T02:17:25;100757.97;;;5.39;100.00
75192;BME280;63771;52.580;9.734;2023-12-20T02:19:50;100738.94;;;5.43;100.00
75192;BME280;63771;52.580;9.734;2023-12-20T02:22:16;100741.28;;;5.41;100.00
75192;BME280;63771;52.580;9.734;2023-12-20T02:24:41;100750.84;;;5.44;100.00
75192;BME280;63771;52.580;9.734;2023-12-20T02:27:07;100739.66;;;5.42;100.00
75192;BME280;63771;52.580;9.734;2023-12-20T02:29:33;100741.16;;;5.40;100.00
75192;BME280;63771;52.580;9.734;2023-12-20T02:31:59;100742.63;;;5.38;100.00
75192;BME280;63771;52.580;9.734;2023-12-20T02:34:24;100755.28;;;5.38;100.00
75192;BME280;63771;52.580;9.734;2023-12-20T02:36:50;100742.78;;;5.39;100.00
75192;BME280;63771;52.580;9.734;2023-12-20T02:39:15;100744.25;;;5.37;100.00
75192;BME280;63771;52.580;9.734;2023-12-20T02:41:40;100737.44;;;5.45;100.00
75192;BME280;63771;52.580;9.734;2023-12-20T02:44:06;100734.03;;;5.53;100.00
75192;BME280;63771;52.580;9.734;2023-12-20T02:46:31;100737.50;;;5.54;100.00
75192;BME280;63771;52.580;9.734;2023-12-20T02:48:56;100738.22;;;5.53;100.00
75192;BME280;63771;52.580;9.734;2023-12-20T02:51:22;100729.88;;;5.45;100.00
75192;BME280;63771;52.580;9.734;2023-12-20T02:53:47;100737.44;;;5.45;100.00
75192;BME280;63771;52.580;9.734;2023-12-20T02:56:12;100730.28;;;5.41;100.00
75192;BME280;63771;52.580;9.734;2023-12-20T02:58:39;100726.38;;;5.36;100.00
75192;BME280;63771;52.580;9.734;2023-12-20T03:01:04;100721.03;;;5.33;100.00
75192;BME280;63771;52.580;9.734;2023-12-20T03:03:30;100715.38;;;5.35;100.00
75192;BME280;63771;52.580;9.734;2023-12-20T03:05:55;100711.97;;;5.35;100.00
75192;BME280;63771;52.580;9.734;2023-12-20T03:08:20;100707.66;;;5.34;100.00
75192;BME280;63771;52.580;9.734;2023-12-20T03:10:46;100704.38;;;5.35;100.00
75192;BME280;63771;52.580;9.734;2023-12-20T03:13:11;100700.06;;;5.34;100.00
75192;BME280;63771;52.580;9.734;2023-12-20T03:15:36;100697.34;;;5.32;100.00
75192;BME280;63771;52.580;9.734;2023-12-20T03:18:02;100698.09;;;5.31;100.00
75192;BME280;63771;52.580;9.734;2023-12-20T03:20:28;100690.34;;;5.30;100.00
75192;BME280;63771;52.580;9.734;2023-12-20T03:22:53;100695.84;;;5.26;100.00
75192;BME280;63771;52.580;9.734;2023-12-20T03:25:18;100682.28;;;5.25;100.00
75192;BME280;63771;52.580;9.734;2023-12-20T03:27:44;100677.84;;;5.22;100.00
75192;BME280;63771;52.580;9.734;2023-12-20T03:30:09;100678.25;;;5.18;100.00
75192;BME280;63771;52.580;9.734;2023-12-20T03:32:35;100672.03;;;5.23;100.00
75192;BME280;63771;52.580;9.734;2023-12-20T03:35:00;100670.41;;;5.24;100.00
75192;BME280;63771;52.580;9.734;2023-12-20T03:37:25;100666.94;;;5.15;100.00
75192;BME280;63771;52.580;9.734;2023-12-20T03:39:50;100676.00;;;5.13;100.00
75192;BME280;63771;52.580;9.734;2023-12-20T03:42:16;100665.47;;;5.17;100.00
75192;BME280;63771;52.580;9.734;2023-12-20T03:44:41;100666.34;;;5.17;100.00
75192;BME280;63771;52.580;9.734;2023-12-20T03:47:07;100662.47;;;5.12;100.00
75192;BME280;63771;52.580;9.734;2023-12-20T03:49:32;100673.16;;;5.10;100.00
75192;BME280;63771;52.580;9.734;2023-12-20T03:51:58;100672.25;;;5.09;100.00
75192;BME280;63771;52.580;9.734;2023-12-20T03:54:24;100672.84;;;5.07;100.00
75192;BME280;63771;52.580;9.734;2023-12-20T03:56:49;100664.34;;;5.06;100.00
75192;BME280;63771;52.580;9.734;2023-12-20T03:59:14;100653.81;;;5.10;100.00
75192;BME280;63771;52.580;9.734;2023-12-20T04:01:43;100656.34;;;5.10;100.00
75192;BME280;63771;52.580;9.734;2023-12-20T04:04:10;100652.78;;;5.08;100.00
75192;BME280;63771;52.580;9.734;2023-12-20T04:06:35;100660.66;;;5.11;100.00
75192;BME280;63771;52.580;9.734;2023-12-20T04:09:01;100665.00;;;5.12;100.00
75192;BME280;63771;52.580;9.734;2023-12-20T04:11:26;100655.78;;;5.13;100.00
75192;BME280;63771;52.580;9.734;2023-12-20T04:13:51;100659.63;;;5.09;100.00
75192;BME280;63771;52.580;9.734;2023-12-20T04:16:17;100653.81;;;5.10;100.00
75192;BME280;63771;52.580;9.734;2023-12-20T04:18:42;100663.78;;;5.09;100.00
75192;BME280;63771;52.580;9.734;2023-12-20T04:21:07;100658.72;;;5.09;100.00
75192;BME280;63771;52.580;9.734;2023-12-20T04:23:32;100654.69;;;5.11;100.00
75192;BME280;63771;52.580;9.734;2023-12-20T04:25:58;100657.41;;;5.12;100.00
75192;BME280;63771;52.580;9.734;2023-12-20T04:28:23;100636.44;;;5.13;100.00
75192;BME280;63771;52.580;9.734;2023-12-20T04:30:49;100637.66;;;5.17;100.00
75192;BME280;63771;52.580;9.734;2023-12-20T04:33:14;100638.38;;;5.16;100.00
75192;BME280;63771;52.580;9.734;2023-12-20T04:35:39;100636.72;;;5.16;100.00
75192;BME280;63771;52.580;9.734;2023-12-20T04:38:06;100635.56;;;5.21;100.00
75192;BME280;63771;52.580;9.734;2023-12-20T04:40:31;100638.28;;;5.23;100.00
75192;BME280;63771;52.580;9.734;2023-12-20T04:42:56;100635.28;;;5.27;100.00
75192;BME280;63771;52.580;9.734;2023-12-20T04:45:22;100635.56;;;5.21;100.00
75192;BME280;63771;52.580;9.734;2023-12-20T04:47:48;100629.03;;;5.23;100.00
75192;BME280;63771;52.580;9.734;2023-12-20T04:50:14;100628.31;;;5.24;100.00
75192;BME280;63771;52.580;9.734;2023-12-20T04:52:39;100630.50;;;5.21;100.00
75192;BME280;63771;52.580;9.734;2023-12-20T04:55:05;100630.09;;;5.26;100.00
75192;BME280;63771;52.580;9.734;2023-12-20T04:57:30;100631.28;;;5.29;100.00
75192;BME280;63771;52.580;9.734;2023-12-20T04:59:56;100636.81;;;5.34;100.00
75192;BME280;63771;52.580;9.734;2023-12-20T05:02:21;100640.38;;;5.36;100.00
75192;BME280;63771;52.580;9.734;2023-12-20T05:04:47;100628.81;;;5.38;100.00
75192;BME280;63771;52.580;9.734;2023-12-20T05:07:12;100641.44;;;5.38;100.00
75192;BME280;63771;52.580;9.734;2023-12-20T05:09:37;100635.22;;;5.43;100.00
75192;BME280;63771;52.580;9.734;2023-12-20T05:12:03;100630.88;;;5.42;100.00
75192;BME280;63771;52.580;9.734;2023-12-20T05:14:28;100630.16;;;5.43;100.00
75192;BME280;63771;52.580;9.734;2023-12-20T05:16:54;100621.97;;;5.45;100.00
75192;BME280;63771;52.580;9.734;2023-12-20T05:19:19;100642.34;;;5.47;100.00
75192;BME280;63771;52.580;9.734;2023-12-20T05:21:44;100634.75;;;5.47;100.00
75192;BME280;63771;52.580;9.734;2023-12-20T05:24:10;100625.72;;;5.49;100.00
75192;BME280;63771;52.580;9.734;2023-12-20T05:26:35;100644.31;;;5.49;100.00
75192;BME280;63771;52.580;9.734;2023-12-20T05:29:00;100626.00;;;5.52;100.00
75192;BME280;63771;52.580;9.734;2023-12-20T05:31:26;100623.47;;;5.52;100.00
75192;BME280;63771;52.580;9.734;2023-12-20T05:33:51;100616.63;;;5.51;100.00
75192;BME280;63771;52.580;9.734;2023-12-20T05:36:16;100622.72;;;5.53;100.00
75192;BME280;63771;52.580;9.734;2023-12-20T05:38:42;100622.72;;;5.53;100.00
75192;BME280;63771;52.580;9.734;2023-12-20T05:41:07;100631.84;;;5.60;100.00
75192;BME280;63771;52.580;9.734;2023-12-20T05:43:32;100630.94;;;5.59;100.00
75192;BME280;63771;52.580;9.734;2023-12-20T05:45:58;100624.06;;;5.58;100.00
75192;BME280;63771;52.580;9.734;2023-12-20T05:48:23;100628.41;;;5.59;100.00
75192;BME280;63771;52.580;9.734;2023-12-20T05:50:48;100625.28;;;5.62;100.00
75192;BME280;63771;52.580;9.734;2023-12-20T05:53:14;100623.06;;;5.65;100.00
75192;BME280;63771;52.580;9.734;2023-12-20T05:55:39;100622.31;;;5.66;100.00
75192;BME280;63771;52.580;9.734;2023-12-20T05:58:05;100626.06;;;5.69;100.00
75192;BME280;63771;52.580;9.734;2023-12-20T06:00:30;100625.31;;;5.70;100.00
75192;BME280;63771;52.580;9.734;2023-12-20T06:02:56;100633.66;;;5.69;100.00
75192;BME280;63771;52.580;9.734;2023-12-20T06:05:21;100633.03;;;5.72;100.00
75192;BME280;63771;52.580;9.734;2023-12-20T06:07:46;100638.09;;;5.72;100.00
75192;BME280;63771;52.580;9.734;2023-12-20T06:10:13;100643.16;;;5.72;100.00
75192;BME280;63771;52.580;9.734;2023-12-20T06:12:39;100639.59;;;5.70;100.00
75192;BME280;63771;52.580;9.734;2023-12-20T06:15:04;100632.44;;;5.66;100.00
75192;BME280;63771;52.580;9.734;2023-12-20T06:17:31;100623.06;;;5.65;100.00
75192;BME280;63771;52.580;9.734;2023-12-20T06:19:56;100621.09;;;5.62;100.00
75192;BME280;63771;52.580;9.734;2023-12-20T06:22:22;100628.13;;;5.65;100.00
75192;BME280;63771;52.580;9.734;2023-12-20T06:24:47;100612.78;;;5.63;100.00
75192;BME280;63771;52.580;9.734;2023-12-20T06:27:12;100627.53;;;5.67;100.00
75192;BME280;63771;52.580;9.734;2023-12-20T06:29:38;100624.25;;;5.68;100.00
75192;BME280;63771;52.580;9.734;2023-12-20T06:32:03;100614.28;;;5.70;100.00
75192;BME280;63771;52.580;9.734;2023-12-20T06:34:29;100611.59;;;5.68;100.00
75192;BME280;63771;52.580;9.734;2023-12-20T06:36:54;100619.19;;;5.68;100.00
75192;BME280;63771;52.580;9.734;2023-12-20T06:39:20;100605.22;;;5.72;100.00
75192;BME280;63771;52.580;9.734;2023-12-20T06:41:45;100615.78;;;5.76;100.00
75192;BME280;63771;52.580;9.734;2023-12-20T06:44:10;100609.75;;;5.92;100.00
75192;BME280;63771;52.580;9.734;2023-12-20T06:46:36;100615.19;;;5.88;100.00
75192;BME280;63771;52.580;9.734;2023-12-20T06:49:01;100611.78;;;5.87;100.00
75192;BME280;63771;52.580;9.734;2023-12-20T06:51:28;100611.63;;;5.86;100.00
75192;BME280;63771;52.580;9.734;2023-12-20T06:53:53;100612.06;;;5.82;100.00
75192;BME280;63771;52.580;9.734;2023-12-20T06:56:18;100609.22;;;5.79;100.00
75192;BME280;63771;52.580;9.734;2023-12-20T06:58:44;100607.44;;;5.78;100.00
75192;BME280;63771;52.580;9.734;2023-12-20T07:01:13;100607.44;;;5.78;100.00
75192;BME280;63771;52.580;9.734;2023-12-20T07:03:39;100598.38;;;5.80;100.00
75192;BME280;63771;52.580;9.734;2023-12-20T07:06:05;100592.56;;;5.81;100.00
75192;BME280;63771;52.580;9.734;2023-12-20T07:08:30;100583.91;;;5.79;100.00
75192;BME280;63771;52.580;9.734;2023-12-20T07:10:56;100580.34;;;5.76;100.00
75192;BME280;63771;52.580;9.734;2023-12-20T07:13:21;100586.31;;;5.77;100.00
75192;BME280;63771;52.580;9.734;2023-12-20T07:15:48;100571.25;;;5.79;100.00
75192;BME280;63771;52.580;9.734;2023-12-20T07:18:13;100570.22;;;5.76;100.00
75192;BME280;63771;52.580;9.734;2023-12-20T07:20:39;100572.44;;;5.73;100.00
75192;BME280;63771;52.580;9.734;2023-12-20T07:23:04;100582.88;;;5.76;100.00
75192;BME280;63771;52.580;9.734;2023-12-20T07:25:29;100569.19;;;5.74;100.00
75192;BME280;63771;52.580;9.734;2023-12-20T07:27:57;100580.34;;;5.76;100.00
75192;BME280;63771;52.580;9.734;2023-12-20T07:30:23;100573.78;;;5.79;100.00
75192;BME280;63771;52.580;9.734;2023-12-20T07:32:48;100592.56;;;5.81;100.00
75192;BME280;63771;52.580;9.734;2023-12-20T07:35:14;100580.66;;;5.80;100.00
75192;BME280;63771;52.580;9.734;2023-12-20T07:37:40;100575.88;;;5.83;100.00
75192;BME280;63771;52.580;9.734;2023-12-20T07:40:06;100571.25;;;5.79;100.00
75192;BME280;63771;52.580;9.734;2023-12-20T07:42:31;100582.13;;;5.78;100.00
75192;BME280;63771;52.580;9.734;2023-12-20T07:44:57;100579.47;;;5.76;100.00
75192;BME280;63771;52.580;9.734;2023-12-20T07:47:22;100580.03;;;5.73;100.00
75192;BME280;63771;52.580;9.734;2023-12-20T07:49:48;100579.16;;;5.73;100.00
75192;BME280;63771;52.580;9.734;2023-12-20T07:52:14;100574.53;;;5.69;100.00
75192;BME280;63771;52.580;9.734;2023-12-20T07:54:39;100577.06;;;5.78;100.00
75192;BME280;63771;52.580;9.734;2023-12-20T07:57:05;100578.84;;;5.79;100.00
75192;BME280;63771;52.580;9.734;2023-12-20T07:59:30;100576.50;;;5.80;100.00
75192;BME280;63771;52.580;9.734;2023-12-20T08:01:56;100575.59;;;5.80;100.00
75192;BME280;63771;52.580;9.734;2023-12-20T08:04:21;100587.06;;;5.85;100.00
75192;BME280;63771;52.580;9.734;2023-12-20T08:06:47;100578.88;;;5.87;100.00
75192;BME280;63771;52.580;9.734;2023-12-20T08:09:12;100574.09;;;5.82;100.00
75192;BME280;63771;52.580;9.734;2023-12-20T08:11:38;100565.19;;;5.85;100.00
75192;BME280;63771;52.580;9.734;2023-12-20T08:14:03;100566.34;;;5.89;100.00
75192;BME280;63771;52.580;9.734;2023-12-20T08:16:28;100569.06;;;5.90;100.00
75192;BME280;63771;52.580;9.734;2023-12-20T08:18:54;100563.81;;;5.89;100.00
75192;BME280;63771;52.580;9.734;2023-12-20T08:21:19;100556.56;;;5.92;100.00
75192;BME280;63771;52.580;9.734;2023-12-20T08:23:47;100551.78;;;5.95;100.00
75192;BME280;63771;52.580;9.734;2023-12-20T08:26:13;100562.66;;;5.94;100.00
75192;BME280;63771;52.580;9.734;2023-12-20T08:28:38;100551.78;;;5.95;100.00
75192;BME280;63771;52.580;9.734;2023-12-20T08:31:03;100539.56;;;5.99;100.00
75192;BME280;63771;52.580;9.734;2023-12-20T08:33:29;100541.22;;;5.99;100.00
75192;BME280;63771;52.580;9.734;2023-12-20T08:35:54;100555.22;;;6.04;100.00
75192;BME280;63771;52.580;9.734;2023-12-20T08:38:19;100533.94;;;6.02;100.00
75192;BME280;63771;52.580;9.734;2023-12-20T08:40:45;100532.59;;;6.06;100.00
75192;BME280;63771;52.580;9.734;2023-12-20T08:43:10;100522.00;;;6.10;100.00
75192;BME280;63771;52.580;9.734;2023-12-20T08:45:36;100542.41;;;6.11;100.00
75192;BME280;63771;52.580;9.734;2023-12-20T08:48:02;100536.59;;;6.12;100.00
75192;BME280;63771;52.580;9.734;2023-12-20T08:50:28;100512.47;;;6.07;100.00
75192;BME280;63771;52.580;9.734;2023-12-20T08:52:54;100529.44;;;5.99;100.00
75192;BME280;63771;52.580;9.734;2023-12-20T08:55:19;100514.25;;;6.08;100.00
75192;BME280;63771;52.580;9.734;2023-12-20T08:57:44;100516.78;;;6.08;100.00
75192;BME280;63771;52.580;9.734;2023-12-20T09:00:10;100502.78;;;6.12;100.00
75192;BME280;63771;52.580;9.734;2023-12-20T09:02:36;100511.28;;;6.12;100.00
75192;BME280;63771;52.580;9.734;2023-12-20T09:05:02;100509.31;;;6.10;100.00
75192;BME280;63771;52.580;9.734;2023-12-20T09:07:29;100508.13;;;6.15;100.00
75192;BME280;63771;52.580;9.734;2023-12-20T09:09:57;100502.91;;;6.13;100.00
75192;BME280;63771;52.580;9.734;2023-12-20T09:12:22;100495.63;;;6.16;100.00
75192;BME280;63771;52.580;9.734;2023-12-20T09:14:49;100493.09;;;6.16;100.00
75192;BME280;63771;52.580;9.734;2023-12-20T09:17:15;100491.91;;;6.21;100.00
75192;BME280;63771;52.580;9.734;2023-12-20T09:19:41;100474.75;;;6.19;100.00
75192;BME280;63771;52.580;9.734;2023-12-20T09:22:07;100481.47;;;6.18;100.00
75192;BME280;63771;52.580;9.734;2023-12-20T09:24:33;100492.47;;;6.19;100.00
75192;BME280;63771;52.580;9.734;2023-12-20T09:26:58;100474.31;;;6.23;100.00
75192;BME280;63771;52.580;9.734;2023-12-20T09:29:23;100480.25;;;6.23;100.00
75192;BME280;63771;52.580;9.734;2023-12-20T09:31:50;100486.84;;;6.21;100.00
75192;BME280;63771;52.580;9.734;2023-12-20T09:34:15;100484.44;;;6.23;100.00
75192;BME280;63771;52.580;9.734;2023-12-20T09:36:41;100478.75;;;6.25;100.00
75192;BME280;63771;52.580;9.734;2023-12-20T09:39:14;100474.31;;;6.23;100.00
75192;BME280;63771;52.580;9.734;2023-12-20T09:41:43;100465.63;;;6.30;100.00
75192;BME280;63771;52.580;9.734;2023-12-20T09:44:14;100479.94;;;6.29;100.00
75192;BME280;63771;52.580;9.734;2023-12-20T09:46:43;100475.50;;;6.26;100.00
75192;BME280;63771;52.580;9.734;2023-12-20T09:49:08;100474.88;;;6.29;100.00
75192;BME280;63771;52.580;9.734;2023-12-20T09:51:34;100474.88;;;6.29;100.00
75192;BME280;63771;52.580;9.734;2023-12-20T09:54:03;100472.91;;;6.35;100.00
75192;BME280;63771;52.580;9.734;2023-12-20T09:56:28;100475.44;;;6.35;100.00
75192;BME280;63771;52.580;9.734;2023-12-20T09:58:54;100468.31;;;6.31;100.00
75192;BME280;63771;52.580;9.734;2023-12-20T10:01:21;100469.06;;;6.30;100.00
75192;BME280;63771;52.580;9.734;2023-12-20T10:03:46;100467.13;;;6.27;100.00
75192;BME280;63771;52.580;9.734;2023-12-20T10:06:12;100477.28;;;6.27;100.00
75192;BME280;63771;52.580;9.734;2023-12-20T10:08:38;100472.66;;;6.23;100.00
75192;BME280;63771;52.580;9.734;2023-12-20T10:11:04;100449.84;;;6.23;100.00
75192;BME280;63771;52.580;9.734;2023-12-20T10:13:30;100453.41;;;6.25;100.00
75192;BME280;63771;52.580;9.734;2023-12-20T10:15:56;100455.22;;;6.26;100.00
75192;BME280;63771;52.580;9.734;2023-12-20T10:18:22;100449.84;;;6.23;100.00
75192;BME280;63771;52.580;9.734;2023-12-20T10:20:48;100455.50;;;6.30;100.00
75192;BME280;63771;52.580;9.734;2023-12-20T10:23:15;100450.56;;;6.31;100.00
75192;BME280;63771;52.580;9.734;2023-12-20T10:25:40;100447.31;;;6.32;100.00
75192;BME280;63771;52.580;9.734;2023-12-20T10:28:11;100455.63;;;6.31;100.00
75192;BME280;63771;52.580;9.734;2023-12-20T10:30:38;100446.69;;;6.35;100.00
75192;BME280;63771;52.580;9.734;2023-12-20T10:33:06;100446.81;;;6.36;100.00
75192;BME280;63771;52.580;9.734;2023-12-20T10:35:33;100442.94;;;6.40;100.00
75192;BME280;63771;52.580;9.734;2023-12-20T10:38:03;100444.13;;;6.43;100.00
75192;BME280;63771;52.580;9.734;2023-12-20T10:40:29;100441.03;;;6.37;100.00
75192;BME280;63771;52.580;9.734;2023-12-20T10:42:55;100424.19;;;6.38;100.00
75192;BME280;63771;52.580;9.734;2023-12-20T10:45:22;100430.16;;;6.38;100.00
75192;BME280;63771;52.580;9.734;2023-12-20T10:47:49;100434.31;;;6.38;100.00
75192;BME280;63771;52.580;9.734;2023-12-20T10:50:15;100424.44;;;6.41;100.00
75192;BME280;63771;52.580;9.734;2023-12-20T10:52:41;100415.84;;;6.39;100.00
75192;BME280;63771;52.580;9.734;2023-12-20T10:55:07;100422.38;;;6.37;100.00
75192;BME280;63771;52.580;9.734;2023-12-20T10:57:35;100413.88;;;6.36;100.00
75192;BME280;63771;52.580;9.734;2023-12-20T11:00:02;100419.38;;;6.41;100.00
75192;BME280;63771;52.580;9.734;2023-12-20T11:02:32;100409.56;;;6.44;100.00
75192;BME280;63771;52.580;9.734;2023-12-20T11:05:22;100391.34;;;6.48;100.00
75192;BME280;63771;52.580;9.734;2023-12-20T11:08:29;100408.59;;;6.52;100.00
75192;BME280;63771;52.580;9.734;2023-12-20T11:11:13;100402.06;;;6.54;100.00
75192;BME280;63771;52.580;9.734;2023-12-20T11:14:05;100396.22;;;6.55;100.00
75192;BME280;63771;52.580;9.734;2023-12-20T11:16:32;100403.81;;;6.55;100.00
75192;BME280;63771;52.580;9.734;2023-12-20T11:18:57;100411.44;;;6.55;100.00
75192;BME280;63771;52.580;9.734;2023-12-20T11:21:23;100415.88;;;6.58;100.00
75192;BME280;63771;52.580;9.734;2023-12-20T11:23:48;100411.72;;;6.58;100.00
75192;BME280;63771;52.580;9.734;2023-12-20T11:26:15;100400.53;;;6.56;100.00
75192;BME280;63771;52.580;9.734;2023-12-20T11:28:41;100425.00;;;6.47;100.00
75192;BME280;63771;52.580;9.734;2023-12-20T11:31:07;100437.41;;;6.44;100.00
75192;BME280;63771;52.580;9.734;2023-12-20T11:33:37;100444.47;;;6.38;100.00
75192;BME280;63771;52.580;9.734;2023-12-20T11:36:13;100451.63;;;6.24;100.00
75192;BME280;63771;52.580;9.734;2023-12-20T11:38:38;100444.22;;;6.17;100.00
75192;BME280;63771;52.580;9.734;2023-12-20T11:41:06;100432.47;;;6.09;100.00
75192;BME280;63771;52.580;9.734;2023-12-20T11:43:35;100421.75;;;6.03;100.00
75192;BME280;63771;52.580;9.734;2023-12-20T11:46:08;100422.66;;;5.95;100.00
75192;BME280;63771;52.580;9.734;2023-12-20T11:48:36;100429.53;;;5.96;100.00
75192;BME280;63771;52.580;9.734;2023-12-20T11:51:02;100427.91;;;5.96;100.00
75192;BME280;63771;52.580;9.734;2023-12-20T11:53:29;100430.56;;;5.98;100.00
75192;BME280;63771;52.580;9.734;2023-12-20T11:55:55;100421.19;;;5.97;100.00
75192;BME280;63771;52.580;9.734;2023-12-20T11:58:21;100411.06;;;5.97;100.00
75192;BME280;63771;52.580;9.734;2023-12-20T12:00:49;100416.25;;;5.98;100.00
75192;BME280;63771;52.580;9.734;2023-12-20T12:03:15;100415.66;;;6.01;100.00
75192;BME280;63771;52.580;9.734;2023-12-20T12:05:40;100412.97;;;5.99;100.00
75192;BME280;63771;52.580;9.734;2023-12-20T12:08:06;100416.56;;;6.01;100.00
75192;BME280;63771;52.580;9.734;2023-12-20T12:10:32;100409.56;;;5.99;100.00
75192;BME280;63771;52.580;9.734;2023-12-20T12:12:58;100418.34;;;5.94;100.00
75192;BME280;63771;52.580;9.734;2023-12-20T12:15:23;100427.59;;;5.93;100.00
75192;BME280;63771;52.580;9.734;2023-12-20T12:17:56;100428.88;;;5.90;100.00
75192;BME280;63771;52.580;9.734;2023-12-20T12:20:21;100429.19;;;5.84;100.00
75192;BME280;63771;52.580;9.734;2023-12-20T12:22:57;100438.91;;;5.80;100.00
75192;BME280;63771;52.580;9.734;2023-12-20T12:25:23;100431.03;;;5.76;100.00
75192;BME280;63771;52.580;9.734;2023-12-20T12:27:50;100429.69;;;5.71;100.00
75192;BME280;63771;52.580;9.734;2023-12-20T12:30:16;100432.22;;;5.71;100.00
75192;BME280;63771;52.580;9.734;2023-12-20T12:32:44;100434.00;;;5.72;100.00
75192;BME280;63771;52.580;9.734;2023-12-20T12:35:09;100414.06;;;5.75;100.00
75192;BME280;63771;52.580;9.734;2023-12-20T12:37:37;100420.16;;;5.78;100.00
75192;BME280;63771;52.580;9.734;2023-12-20T12:40:06;100423.44;;;5.76;100.00
75192;BME280;63771;52.580;9.734;2023-12-20T12:42:32;100417.34;;;5.74;100.00
75192;BME280;63771;52.580;9.734;2023-12-20T12:44:57;100410.19;;;5.70;100.00